Time;durP1;ratioP1;P1;durP2;ratioP2;P2;SDS_P1;SDS_P2;PMS_P1;PMS_P2;Temp;Humidity;BMP_temperature;BMP_pressure;BME280_temperature;BME280_humidity;BME280_pressure;Samples;Min_cycle;Max_cycle;Signal;HPM_P1;HPM_P2
2022/01/01 00:02:16;;;;;;;12.03;9.00;;;;;;;;;;5012507;28;20437;-52
2022/01/01 00:04:42;;;;;;;17.37;9.20;;;;;;;;;;5014402;28;20898;-53
2022/01/01 00:07:11;;;;;;;12.67;9.93;;;;;;;;;;5012803;28;20650;-52
2022/01/01 00:09:38;;;;;;;22.30;9.83;;;;;;;;;;5010076;28;20432;-51
2022/01/01 00:12:04;;;;;;;12.00;8.20;;;;;;;;;;5013481;28;20525;-54
2022/01/01 00:14:30;;;;;;;15.37;7.90;;;;;;;;;;5014227;28;20781;-52
2022/01/01 00:16:58;;;;;;;17.80;8.30;;;;;;;;;;5010994;28;20425;-53
2022/01/01 00:19:24;;;;;;;20.53;9.77;;;;;;;;;;5013363;28;20490;-52
2022/01/01 00:21:49;;;;;;;23.93;10.33;;;;;;;;;;5014011;28;20445;-52
2022/01/01 00:24:16;;;;;;;19.13;11.50;;;;;;;;;;5013966;28;20474;-53
2022/01/01 00:26:41;;;;;;;14.47;8.83;;;;;;;;;;5013879;28;20984;-53
2022/01/01 00:29:08;;;;;;;20.43;8.67;;;;;;;;;;5013747;28;20513;-52
2022/01/01 00:31:33;;;;;;;13.43;8.40;;;;;;;;;;5014125;28;20954;-54
2022/01/01 00:33:59;;;;;;;10.10;8.47;;;;;;;;;;5014134;28;20405;-53
2022/01/01 00:36:31;;;;;;;14.90;8.50;;;;;;;;;;5012697;28;20433;-54
2022/01/01 00:38:57;;;;;;;19.30;7.33;;;;;;;;;;5013915;28;20454;-54
2022/01/01 00:41:23;;;;;;;16.50;8.00;;;;;;;;;;5014299;28;20428;-53
2022/01/01 00:43:49;;;;;;;15.63;8.33;;;;;;;;;;5013767;28;20433;-54
2022/01/01 00:46:15;;;;;;;21.53;10.07;;;;;;;;;;5013950;28;20543;-54
2022/01/01 00:48:41;;;;;;;21.80;9.53;;;;;;;;;;5013845;28;20426;-53
2022/01/01 00:51:07;;;;;;;19.47;9.80;;;;;;;;;;5013656;28;20953;-54
2022/01/01 00:53:33;;;;;;;15.70;9.40;;;;;;;;;;5013405;28;20500;-54
2022/01/01 00:55:59;;;;;;;26.87;11.50;;;;;;;;;;5009854;28;20458;-54
2022/01/01 00:58:25;;;;;;;20.30;10.50;;;;;;;;;;5009489;28;20472;-54
2022/01/01 01:00:51;;;;;;;23.73;10.30;;;;;;;;;;5008749;28;20436;-54
2022/01/01 01:03:17;;;;;;;22.30;10.70;;;;;;;;;;5008561;28;20429;-54
2022/01/01 01:05:45;;;;;;;18.67;10.57;;;;;;;;;;5008232;28;20562;-54
2022/01/01 01:08:12;;;;;;;18.13;10.10;;;;;;;;;;5007406;28;20428;-54
2022/01/01 01:10:38;;;;;;;20.10;10.73;;;;;;;;;;5008915;28;20421;-54
2022/01/01 01:13:06;;;;;;;21.33;11.07;;;;;;;;;;5011709;28;20433;-54
2022/01/01 01:15:32;;;;;;;16.47;10.37;;;;;;;;;;5008152;28;20425;-55
2022/01/01 01:17:59;;;;;;;22.17;11.17;;;;;;;;;;5010418;28;20518;-55
2022/01/01 01:20:26;;;;;;;19.73;9.87;;;;;;;;;;5012670;28;20405;-55
2022/01/01 01:22:52;;;;;;;20.57;10.60;;;;;;;;;;5014213;28;20402;-54
2022/01/01 01:25:19;;;;;;;27.63;9.70;;;;;;;;;;5013933;28;20849;-54
2022/01/01 01:27:45;;;;;;;24.90;10.93;;;;;;;;;;5014445;28;20423;-54
2022/01/01 01:30:14;;;;;;;19.17;10.33;;;;;;;;;;5014388;28;20409;-54
2022/01/01 01:32:40;;;;;;;34.17;13.17;;;;;;;;;;5013814;28;20557;-54
2022/01/01 01:35:07;;;;;;;24.03;10.47;;;;;;;;;;5013993;28;20857;-54
2022/01/01 01:37:33;;;;;;;17.87;10.40;;;;;;;;;;5013468;28;20436;-55
2022/01/01 01:39:59;;;;;;;15.40;10.73;;;;;;;;;;5013614;28;20463;-54
2022/01/01 01:42:27;;;;;;;20.77;10.63;;;;;;;;;;5008971;28;20416;-51
2022/01/01 01:44:54;;;;;;;24.43;10.40;;;;;;;;;;5008571;28;20912;-52
2022/01/01 01:47:29;;;;;;;21.27;10.07;;;;;;;;;;5005496;28;20493;-52
2022/01/01 01:49:56;;;;;;;16.60;9.73;;;;;;;;;;5012352;28;20379;-51
2022/01/01 01:52:23;;;;;;;15.33;10.00;;;;;;;;;;5012306;28;20408;-52
2022/01/01 01:54:49;;;;;;;18.53;9.83;;;;;;;;;;5011978;28;20417;-52
2022/01/01 01:57:15;;;;;;;20.60;11.13;;;;;;;;;;5011742;28;20514;-52
2022/01/01 01:59:42;;;;;;;23.83;10.10;;;;;;;;;;5009459;28;20469;-53
2022/01/01 02:02:08;;;;;;;18.10;10.20;;;;;;;;;;5011422;28;20489;-52
2022/01/01 02:04:36;;;;;;;21.80;10.90;;;;;;;;;;5010818;28;20756;-52
2022/01/01 02:07:02;;;;;;;16.37;10.27;;;;;;;;;;5011217;28;20457;-52
2022/01/01 02:09:28;;;;;;;30.13;10.30;;;;;;;;;;5001835;28;20418;-52
2022/01/01 02:11:54;;;;;;;21.30;9.90;;;;;;;;;;4994919;28;20415;-52
2022/01/01 02:14:32;;;;;;;18.73;9.60;;;;;;;;;;5009677;28;20444;-51
2022/01/01 02:19:24;;;;;;;23.37;9.40;;;;;;;;;;5011698;28;20458;-51
2022/01/01 02:21:52;;;;;;;25.63;10.33;;;;;;;;;;5011875;28;20799;-51
2022/01/01 02:24:20;;;;;;;23.60;9.80;;;;;;;;;;5010695;28;20404;-52
2022/01/01 02:26:46;;;;;;;19.47;9.50;;;;;;;;;;5011477;28;20431;-52
2022/01/01 02:29:12;;;;;;;16.57;9.90;;;;;;;;;;5006403;28;20505;-52
2022/01/01 02:31:38;;;;;;;24.27;9.83;;;;;;;;;;5011499;28;20414;-53
2022/01/01 02:34:05;;;;;;;22.87;10.60;;;;;;;;;;5011580;28;20413;-54
2022/01/01 02:36:36;;;;;;;14.67;8.97;;;;;;;;;;5011354;28;20416;-51
2022/01/01 02:39:09;;;;;;;24.83;9.73;;;;;;;;;;5011440;28;20486;-53
2022/01/01 02:41:35;;;;;;;26.40;9.90;;;;;;;;;;5011609;28;20906;-52
2022/01/01 02:44:01;;;;;;;18.40;9.30;;;;;;;;;;5009916;28;20458;-51
2022/01/01 02:46:27;;;;;;;18.43;9.20;;;;;;;;;;5007834;28;20511;-52
2022/01/01 02:48:53;;;;;;;21.00;10.07;;;;;;;;;;5008633;28;20487;-52
2022/01/01 02:51:19;;;;;;;22.77;9.60;;;;;;;;;;5007300;28;20406;-54
2022/01/01 02:53:45;;;;;;;20.60;11.20;;;;;;;;;;5011309;28;20424;-53
2022/01/01 02:56:11;;;;;;;19.20;9.90;;;;;;;;;;5009245;28;20413;-53
2022/01/01 02:58:37;;;;;;;19.90;8.90;;;;;;;;;;5008325;28;20476;-53
2022/01/01 03:01:03;;;;;;;18.73;9.27;;;;;;;;;;5010948;28;20428;-53
2022/01/01 03:03:29;;;;;;;15.70;9.20;;;;;;;;;;5011361;28;21142;-51
2022/01/01 03:05:55;;;;;;;23.27;10.30;;;;;;;;;;5005729;28;20405;-51
2022/01/01 03:08:21;;;;;;;20.57;9.00;;;;;;;;;;5010560;28;20421;-52
2022/01/01 03:10:49;;;;;;;17.20;9.23;;;;;;;;;;5011257;28;20424;-53
2022/01/01 03:13:15;;;;;;;21.43;9.87;;;;;;;;;;5011400;28;20495;-51
2022/01/01 03:15:41;;;;;;;19.70;10.40;;;;;;;;;;5008844;28;20519;-51
2022/01/01 03:18:07;;;;;;;17.23;9.70;;;;;;;;;;5010875;28;20432;-52
2022/01/01 03:20:33;;;;;;;26.33;10.33;;;;;;;;;;5010876;28;20425;-53
2022/01/01 03:22:59;;;;;;;15.40;9.13;;;;;;;;;;5011178;28;20419;-52
2022/01/01 03:25:25;;;;;;;17.97;9.60;;;;;;;;;;5005956;28;20476;-51
2022/01/01 03:27:51;;;;;;;13.83;9.30;;;;;;;;;;5007837;28;20429;-54
2022/01/01 03:30:17;;;;;;;23.10;10.30;;;;;;;;;;5008413;28;20813;-51
2022/01/01 03:32:43;;;;;;;17.23;9.87;;;;;;;;;;5011928;28;20417;-54
2022/01/01 03:35:09;;;;;;;19.60;9.07;;;;;;;;;;5011963;28;20416;-54
2022/01/01 03:37:35;;;;;;;28.23;11.30;;;;;;;;;;5014407;28;20435;-54
2022/01/01 03:40:02;;;;;;;16.23;10.93;;;;;;;;;;5014660;28;20463;-54
2022/01/01 03:42:29;;;;;;;22.53;9.90;;;;;;;;;;5012659;28;20410;-54
2022/01/01 03:44:55;;;;;;;28.10;11.00;;;;;;;;;;5012178;28;20406;-54
2022/01/01 03:47:21;;;;;;;15.23;9.70;;;;;;;;;;5014519;28;20436;-54
2022/01/01 03:49:47;;;;;;;21.83;10.47;;;;;;;;;;5014854;28;20411;-53
2022/01/01 03:52:13;;;;;;;19.83;10.50;;;;;;;;;;5014620;28;20408;-54
2022/01/01 03:54:39;;;;;;;17.30;10.73;;;;;;;;;;5014950;28;20417;-54
2022/01/01 03:57:05;;;;;;;16.17;10.30;;;;;;;;;;5014295;28;20405;-53
2022/01/01 03:59:31;;;;;;;26.40;11.37;;;;;;;;;;5011831;28;20457;-54
2022/01/01 04:01:57;;;;;;;29.53;11.40;;;;;;;;;;5014721;28;20416;-54
2022/01/01 04:04:25;;;;;;;20.60;10.77;;;;;;;;;;5014614;28;20614;-54
2022/01/01 04:06:51;;;;;;;21.57;9.87;;;;;;;;;;5011393;28;20484;-53
2022/01/01 04:09:17;;;;;;;18.70;11.23;;;;;;;;;;5014182;28;20787;-54
2022/01/01 04:11:43;;;;;;;27.83;11.30;;;;;;;;;;5014063;28;20402;-54
2022/01/01 04:14:12;;;;;;;21.57;10.93;;;;;;;;;;5013567;28;20414;-54
2022/01/01 04:16:38;;;;;;;16.00;11.07;;;;;;;;;;5013015;28;20414;-54
2022/01/01 04:19:04;;;;;;;17.43;10.20;;;;;;;;;;5013708;28;20968;-54
2022/01/01 04:21:30;;;;;;;25.50;11.80;;;;;;;;;;5011541;28;20416;-54
2022/01/01 04:23:56;;;;;;;28.43;11.83;;;;;;;;;;5013916;28;20398;-54
2022/01/01 04:26:24;;;;;;;24.07;11.40;;;;;;;;;;5014023;28;20924;-54
2022/01/01 04:28:50;;;;;;;25.10;11.40;;;;;;;;;;5013789;28;20420;-54
2022/01/01 04:31:16;;;;;;;19.13;10.20;;;;;;;;;;5014022;28;20406;-53
2022/01/01 04:33:42;;;;;;;20.97;10.63;;;;;;;;;;5013958;28;20413;-54
2022/01/01 04:36:09;;;;;;;23.50;10.60;;;;;;;;;;5013967;28;20485;-54
2022/01/01 04:38:40;;;;;;;19.00;11.10;;;;;;;;;;5013477;28;20470;-54
2022/01/01 04:41:07;;;;;;;18.30;9.33;;;;;;;;;;5013703;28;20457;-54
2022/01/01 04:43:33;;;;;;;20.10;11.27;;;;;;;;;;5013804;28;20465;-54
2022/01/01 04:45:59;;;;;;;19.47;9.90;;;;;;;;;;5013898;28;20410;-53
2022/01/01 04:48:25;;;;;;;15.37;9.67;;;;;;;;;;5012581;28;20516;-54
2022/01/01 04:50:51;;;;;;;12.20;8.70;;;;;;;;;;5013872;28;20445;-53
2022/01/01 04:53:18;;;;;;;19.33;10.57;;;;;;;;;;5013586;28;20415;-54
2022/01/01 04:55:45;;;;;;;20.40;9.33;;;;;;;;;;5013408;28;20410;-54
2022/01/01 04:58:11;;;;;;;20.60;9.87;;;;;;;;;;5013110;28;20905;-53
2022/01/01 05:00:36;;;;;;;18.63;9.20;;;;;;;;;;5012778;28;20472;-54
2022/01/01 05:03:02;;;;;;;20.47;9.40;;;;;;;;;;5013098;28;20428;-54
2022/01/01 05:05:28;;;;;;;15.40;9.00;;;;;;;;;;5013288;28;20549;-54
2022/01/01 05:07:54;;;;;;;14.87;9.10;;;;;;;;;;5012933;28;20420;-53
2022/01/01 05:10:20;;;;;;;13.00;7.50;;;;;;;;;;5013110;28;20416;-53
2022/01/01 05:12:46;;;;;;;11.07;6.90;;;;;;;;;;5013068;28;20405;-54
2022/01/01 05:15:12;;;;;;;15.40;8.40;;;;;;;;;;5013076;28;20792;-54
2022/01/01 05:17:38;;;;;;;13.70;7.63;;;;;;;;;;5012755;28;20464;-54
2022/01/01 05:20:05;;;;;;;15.13;7.80;;;;;;;;;;5013004;28;20460;-54
2022/01/01 05:22:30;;;;;;;14.43;7.10;;;;;;;;;;5013005;28;20405;-53
2022/01/01 05:25:00;;;;;;;15.00;7.47;;;;;;;;;;5012845;28;20469;-54
2022/01/01 05:27:26;;;;;;;13.93;6.87;;;;;;;;;;5012549;28;20433;-53
2022/01/01 05:29:53;;;;;;;12.33;6.50;;;;;;;;;;5012976;28;20491;-54
2022/01/01 05:32:18;;;;;;;16.63;7.40;;;;;;;;;;5012821;28;20492;-54
2022/01/01 05:34:44;;;;;;;14.77;7.30;;;;;;;;;;5012741;28;20448;-53
2022/01/01 05:37:10;;;;;;;12.17;6.13;;;;;;;;;;5012486;28;20405;-54
2022/01/01 05:39:36;;;;;;;15.03;7.60;;;;;;;;;;5012605;28;20457;-54
2022/01/01 05:42:02;;;;;;;14.80;6.80;;;;;;;;;;5012501;28;20914;-54
2022/01/01 05:44:28;;;;;;;14.40;5.93;;;;;;;;;;5012633;28;20400;-53
2022/01/01 05:46:54;;;;;;;9.60;5.80;;;;;;;;;;5012351;28;20848;-53
2022/01/01 05:49:21;;;;;;;14.60;6.53;;;;;;;;;;5012574;28;20418;-53
2022/01/01 05:51:47;;;;;;;13.20;7.10;;;;;;;;;;5012526;28;20433;-53
2022/01/01 05:54:13;;;;;;;12.47;6.03;;;;;;;;;;5011860;28;20388;-53
2022/01/01 05:56:39;;;;;;;17.30;6.53;;;;;;;;;;5012162;28;20977;-54
2022/01/01 05:59:05;;;;;;;16.10;7.13;;;;;;;;;;5011850;28;20469;-54
2022/01/01 06:01:31;;;;;;;17.83;6.97;;;;;;;;;;5012455;28;20535;-54
2022/01/01 06:03:57;;;;;;;10.80;6.20;;;;;;;;;;5012320;28;20436;-54
2022/01/01 06:06:23;;;;;;;13.87;6.90;;;;;;;;;;5012176;28;20472;-54
2022/01/01 06:08:49;;;;;;;20.53;6.90;;;;;;;;;;5011774;28;20587;-54
2022/01/01 06:11:15;;;;;;;14.47;5.90;;;;;;;;;;5012211;28;20443;-54
2022/01/01 06:13:41;;;;;;;13.67;5.90;;;;;;;;;;5012190;28;20414;-54
2022/01/01 06:16:07;;;;;;;11.57;8.00;;;;;;;;;;5012149;28;20412;-53
2022/01/01 06:18:33;;;;;;;11.33;6.60;;;;;;;;;;5011807;28;20553;-54
2022/01/01 06:21:02;;;;;;;16.37;7.53;;;;;;;;;;5011647;28;20454;-54
2022/01/01 06:23:28;;;;;;;9.77;6.00;;;;;;;;;;5012143;28;20811;-54
2022/01/01 06:25:54;;;;;;;17.70;7.10;;;;;;;;;;5012295;28;20410;-53
2022/01/01 06:28:20;;;;;;;9.73;5.40;;;;;;;;;;5011785;28;20795;-53
2022/01/01 06:30:46;;;;;;;16.47;6.50;;;;;;;;;;5011186;28;20408;-54
2022/01/01 06:33:16;;;;;;;16.37;7.43;;;;;;;;;;5011065;28;20405;-54
2022/01/01 06:35:45;;;;;;;10.10;6.40;;;;;;;;;;5010538;28;20404;-54
2022/01/01 06:38:12;;;;;;;10.10;6.10;;;;;;;;;;5011452;28;20429;-54
2022/01/01 06:40:41;;;;;;;14.03;5.10;;;;;;;;;;5011963;28;20424;-54
2022/01/01 06:43:08;;;;;;;14.40;6.53;;;;;;;;;;5011053;28;20421;-54
2022/01/01 06:45:34;;;;;;;17.97;6.03;;;;;;;;;;5011798;28;20422;-54
2022/01/01 06:48:01;;;;;;;17.20;6.73;;;;;;;;;;5010637;28;20447;-53
2022/01/01 06:50:27;;;;;;;13.07;6.30;;;;;;;;;;5011539;28;20412;-54
2022/01/01 06:52:53;;;;;;;8.67;5.80;;;;;;;;;;5011825;28;20448;-53
2022/01/01 06:55:19;;;;;;;8.93;5.13;;;;;;;;;;5011663;28;20420;-54
2022/01/01 06:57:45;;;;;;;8.93;6.13;;;;;;;;;;5011335;28;20429;-54
2022/01/01 07:00:11;;;;;;;11.50;5.90;;;;;;;;;;5012072;28;20464;-54
2022/01/01 07:02:38;;;;;;;14.50;5.70;;;;;;;;;;5010969;28;20413;-53
2022/01/01 07:05:05;;;;;;;15.13;6.70;;;;;;;;;;5011692;28;20405;-54
2022/01/01 07:07:31;;;;;;;16.47;6.13;;;;;;;;;;5011409;28;20422;-54
2022/01/01 07:09:56;;;;;;;16.47;5.53;;;;;;;;;;5011848;28;20777;-53
2022/01/01 07:12:22;;;;;;;11.10;5.53;;;;;;;;;;5015678;28;20420;-54
2022/01/01 07:14:48;;;;;;;7.57;4.60;;;;;;;;;;5015439;28;20413;-54
2022/01/01 07:17:14;;;;;;;10.43;5.07;;;;;;;;;;5014893;28;20436;-54
2022/01/01 07:19:40;;;;;;;6.40;4.77;;;;;;;;;;5015398;28;20492;-54
2022/01/01 07:22:06;;;;;;;10.60;4.87;;;;;;;;;;5015325;28;20464;-54
2022/01/01 07:24:32;;;;;;;11.80;5.30;;;;;;;;;;5015309;28;20914;-54
2022/01/01 07:26:58;;;;;;;11.57;4.57;;;;;;;;;;5014829;28;20399;-54
2022/01/01 07:29:24;;;;;;;6.47;4.30;;;;;;;;;;5015301;28;20904;-54
2022/01/01 07:31:53;;;;;;;7.13;4.10;;;;;;;;;;5015233;28;20900;-54
2022/01/01 07:34:22;;;;;;;15.30;5.17;;;;;;;;;;5015119;28;20400;-54
2022/01/01 07:36:48;;;;;;;8.80;4.50;;;;;;;;;;5014688;28;20410;-54
2022/01/01 07:39:14;;;;;;;6.87;3.90;;;;;;;;;;5014856;28;20530;-54
2022/01/01 07:41:41;;;;;;;8.90;4.70;;;;;;;;;;5014868;28;20534;-54
2022/01/01 07:44:07;;;;;;;5.30;3.50;;;;;;;;;;5015059;28;20429;-54
2022/01/01 07:46:33;;;;;;;7.97;4.07;;;;;;;;;;5014554;28;20410;-54
2022/01/01 07:48:59;;;;;;;7.70;3.97;;;;;;;;;;5014334;28;20404;-54
2022/01/01 07:51:25;;;;;;;6.47;3.83;;;;;;;;;;5014698;28;20424;-53
2022/01/01 07:53:51;;;;;;;10.03;4.63;;;;;;;;;;5014510;28;20417;-54
2022/01/01 07:56:17;;;;;;;7.10;3.93;;;;;;;;;;5014702;28;20418;-54
2022/01/01 07:58:43;;;;;;;10.23;4.00;;;;;;;;;;5014295;28;20459;-54
2022/01/01 08:01:09;;;;;;;7.07;3.73;;;;;;;;;;5014395;28;20405;-54
2022/01/01 08:03:35;;;;;;;6.23;3.40;;;;;;;;;;5014648;28;20399;-54
2022/01/01 08:06:01;;;;;;;7.53;3.63;;;;;;;;;;4996255;28;20460;-54
2022/01/01 08:08:27;;;;;;;9.80;3.53;;;;;;;;;;5013941;28;20501;-54
2022/01/01 08:10:53;;;;;;;9.50;3.03;;;;;;;;;;5014410;28;20446;-53
2022/01/01 08:13:24;;;;;;;10.07;3.80;;;;;;;;;;5014433;28;20459;-54
2022/01/01 08:15:52;;;;;;;5.10;3.93;;;;;;;;;;5014835;28;20432;-54
2022/01/01 08:18:18;;;;;;;7.10;3.23;;;;;;;;;;5013811;28;20445;-54
2022/01/01 08:20:46;;;;;;;5.83;2.90;;;;;;;;;;5014146;28;20777;-54
2022/01/01 08:23:12;;;;;;;6.13;3.17;;;;;;;;;;5014142;28;20414;-53
2022/01/01 08:25:38;;;;;;;7.43;2.90;;;;;;;;;;5014155;28;20406;-53
2022/01/01 08:28:05;;;;;;;5.00;3.20;;;;;;;;;;5013491;28;20424;-54
2022/01/01 08:30:32;;;;;;;6.33;2.87;;;;;;;;;;5014029;28;20417;-54
2022/01/01 08:33:01;;;;;;;5.13;3.63;;;;;;;;;;5013902;28;20407;-54
2022/01/01 08:35:28;;;;;;;6.97;3.30;;;;;;;;;;5014008;28;20399;-54
2022/01/01 08:37:54;;;;;;;6.87;3.73;;;;;;;;;;5013902;28;20891;-53
2022/01/01 08:40:20;;;;;;;6.23;3.60;;;;;;;;;;5012960;28;20549;-54
2022/01/01 08:42:46;;;;;;;4.87;3.10;;;;;;;;;;5013770;28;20922;-53
2022/01/01 08:45:12;;;;;;;11.87;3.60;;;;;;;;;;5013725;28;20406;-53
2022/01/01 08:47:38;;;;;;;6.03;3.10;;;;;;;;;;5013331;28;20419;-53
2022/01/01 08:50:04;;;;;;;6.10;2.90;;;;;;;;;;5013809;28;20822;-54
2022/01/01 08:52:30;;;;;;;6.33;2.77;;;;;;;;;;5013934;28;20820;-54
2022/01/01 08:54:56;;;;;;;7.30;2.50;;;;;;;;;;5013632;28;20422;-54
2022/01/01 08:57:23;;;;;;;6.30;3.33;;;;;;;;;;5013282;28;20426;-53
2022/01/01 08:59:49;;;;;;;10.70;3.10;;;;;;;;;;5013367;28;20467;-54
2022/01/01 09:02:15;;;;;;;5.97;3.03;;;;;;;;;;5013455;28;20410;-53
2022/01/01 09:04:41;;;;;;;7.50;3.30;;;;;;;;;;5012956;28;20494;-54
2022/01/01 09:07:07;;;;;;;3.80;2.70;;;;;;;;;;5013011;28;20513;-53
2022/01/01 09:09:33;;;;;;;6.90;2.60;;;;;;;;;;5013392;28;20753;-54
2022/01/01 09:11:59;;;;;;;4.50;2.53;;;;;;;;;;5013109;28;20414;-54
2022/01/01 09:14:25;;;;;;;9.63;2.67;;;;;;;;;;5013329;28;20459;-54
2022/01/01 09:16:51;;;;;;;5.93;3.40;;;;;;;;;;5012942;28;20402;-54
2022/01/01 09:19:19;;;;;;;10.33;2.80;;;;;;;;;;5013020;28;20979;-53
2022/01/01 09:21:45;;;;;;;10.23;3.23;;;;;;;;;;5012306;28;20770;-53
2022/01/01 09:24:11;;;;;;;5.97;2.77;;;;;;;;;;5009150;28;20438;-54
2022/01/01 09:26:37;;;;;;;4.63;2.30;;;;;;;;;;5007907;28;20451;-54
2022/01/01 09:29:04;;;;;;;4.40;2.80;;;;;;;;;;5012821;28;20430;-54
2022/01/01 09:31:30;;;;;;;6.67;2.77;;;;;;;;;;4994414;28;20454;-54
2022/01/01 09:33:56;;;;;;;6.00;2.70;;;;;;;;;;5013695;28;20411;-55
2022/01/01 09:36:22;;;;;;;3.30;2.67;;;;;;;;;;5015596;28;20436;-55
2022/01/01 09:38:49;;;;;;;6.03;2.80;;;;;;;;;;5015542;28;20464;-54
2022/01/01 09:41:16;;;;;;;9.73;3.20;;;;;;;;;;5014748;28;20474;-54
2022/01/01 09:43:42;;;;;;;5.57;2.87;;;;;;;;;;5015250;28;20378;-54
2022/01/01 09:46:09;;;;;;;4.97;2.37;;;;;;;;;;5014788;28;20382;-54
2022/01/01 09:48:35;;;;;;;5.73;2.77;;;;;;;;;;5012814;28;20421;-55
2022/01/01 09:51:02;;;;;;;11.20;2.40;;;;;;;;;;5014557;28;20468;-55
2022/01/01 09:53:29;;;;;;;7.33;3.10;;;;;;;;;;5014616;28;20781;-55
2022/01/01 09:55:57;;;;;;;7.50;3.30;;;;;;;;;;5014885;28;20503;-55
2022/01/01 09:58:23;;;;;;;3.60;2.50;;;;;;;;;;5014071;28;21034;-54
2022/01/01 10:00:50;;;;;;;11.37;3.00;;;;;;;;;;5013631;28;20779;-55
2022/01/01 10:03:16;;;;;;;5.80;2.27;;;;;;;;;;5013505;28;20496;-55
2022/01/01 10:05:58;;;;;;;11.50;3.57;;;;;;;;;;5014677;28;20389;-55
2022/01/01 10:08:24;;;;;;;5.00;2.20;;;;;;;;;;5013845;28;20955;-55
2022/01/01 10:10:51;;;;;;;10.93;2.90;;;;;;;;;;5013763;28;20400;-54
2022/01/01 10:13:18;;;;;;;6.90;2.60;;;;;;;;;;5013045;28;20395;-55
2022/01/01 10:15:44;;;;;;;5.00;3.17;;;;;;;;;;5013539;28;20391;-54
2022/01/01 10:18:09;;;;;;;5.57;2.67;;;;;;;;;;5013089;28;20524;-54
2022/01/01 10:20:36;;;;;;;8.47;2.73;;;;;;;;;;5013353;28;20435;-55
2022/01/01 10:23:13;;;;;;;7.47;2.17;;;;;;;;;;5013586;28;20408;-55
2022/01/01 10:28:24;;;;;;;3.97;2.50;;;;;;;;;;5012689;28;20434;-55
2022/01/01 10:30:50;;;;;;;14.73;3.03;;;;;;;;;;5012862;28;20404;-54
2022/01/01 10:33:17;;;;;;;6.00;3.50;;;;;;;;;;5012951;28;20902;-55
2022/01/01 10:35:47;;;;;;;4.27;2.60;;;;;;;;;;5013059;28;20894;-54
2022/01/01 10:38:15;;;;;;;4.43;2.40;;;;;;;;;;5009327;28;20437;-54
2022/01/01 10:40:42;;;;;;;6.30;2.50;;;;;;;;;;5013493;28;20479;-55
2022/01/01 10:43:08;;;;;;;4.57;2.27;;;;;;;;;;5012841;28;20416;-55
2022/01/01 10:45:36;;;;;;;4.70;2.07;;;;;;;;;;5014030;28;20910;-54
2022/01/01 10:48:06;;;;;;;3.00;2.57;;;;;;;;;;5017044;28;20435;-54
2022/01/01 10:50:35;;;;;;;3.50;2.40;;;;;;;;;;5016869;28;20405;-55
2022/01/01 10:53:21;;;;;;;13.53;3.20;;;;;;;;;;5018001;28;20772;-54
2022/01/01 10:55:49;;;;;;;10.93;2.50;;;;;;;;;;5018368;28;20407;-55
2022/01/01 10:58:24;;;;;;;10.17;3.10;;;;;;;;;;5017797;28;20493;-54
2022/01/01 11:00:51;;;;;;;9.03;2.70;;;;;;;;;;5017493;28;20736;-55
2022/01/01 11:03:18;;;;;;;6.50;2.40;;;;;;;;;;5016881;28;20533;-54
2022/01/01 11:05:44;;;;;;;5.03;2.60;;;;;;;;;;5017771;28;20829;-55
2022/01/01 11:08:11;;;;;;;4.53;2.40;;;;;;;;;;5018022;28;20977;-55
2022/01/01 11:10:38;;;;;;;7.53;2.43;;;;;;;;;;5018150;28;20925;-55
2022/01/01 11:13:05;;;;;;;4.87;2.40;;;;;;;;;;5017682;28;20383;-55
2022/01/01 11:15:31;;;;;;;8.23;3.63;;;;;;;;;;5017734;28;20411;-55
2022/01/01 11:17:57;;;;;;;5.73;2.90;;;;;;;;;;5017194;28;20409;-55
2022/01/01 11:20:24;;;;;;;5.33;2.27;;;;;;;;;;5017949;28;20431;-55
2022/01/01 11:22:51;;;;;;;7.77;2.77;;;;;;;;;;5018243;28;20379;-55
2022/01/01 11:25:18;;;;;;;3.80;2.10;;;;;;;;;;5017834;28;20719;-55
2022/01/01 11:27:45;;;;;;;2.03;1.80;;;;;;;;;;5017170;28;20993;-55
2022/01/01 11:30:13;;;;;;;6.17;2.20;;;;;;;;;;5017465;28;20382;-54
2022/01/01 11:32:58;;;;;;;4.73;2.43;;;;;;;;;;5017182;28;20397;-55
2022/01/01 11:35:27;;;;;;;4.83;2.63;;;;;;;;;;5017206;28;20468;-53
2022/01/01 11:38:03;;;;;;;4.90;2.50;;;;;;;;;;5016690;28;20443;-54
2022/01/01 11:40:33;;;;;;;3.90;2.17;;;;;;;;;;5015217;28;20516;-54
2022/01/01 11:43:02;;;;;;;10.90;2.03;;;;;;;;;;5017110;28;20484;-55
2022/01/01 11:45:42;;;;;;;6.43;2.27;;;;;;;;;;4997943;28;20478;-54
2022/01/01 11:48:27;;;;;;;6.63;2.10;;;;;;;;;;5011626;28;20586;-55
2022/01/01 11:50:53;;;;;;;5.07;2.60;;;;;;;;;;5012495;28;20874;-54
2022/01/01 11:53:29;;;;;;;4.03;1.90;;;;;;;;;;5015905;28;20462;-55
2022/01/01 11:56:05;;;;;;;7.63;2.60;;;;;;;;;;5015836;28;20439;-54
2022/01/01 11:58:50;;;;;;;2.83;1.93;;;;;;;;;;5015839;28;20432;-54
2022/01/01 12:01:19;;;;;;;6.07;2.13;;;;;;;;;;5016492;28;20500;-54
2022/01/01 12:03:53;;;;;;;5.80;2.60;;;;;;;;;;5017061;28;20419;-54
2022/01/01 12:06:19;;;;;;;2.23;1.87;;;;;;;;;;5016764;28;20482;-54
2022/01/01 12:08:46;;;;;;;2.40;2.20;;;;;;;;;;5016350;28;20477;-54
2022/01/01 12:11:29;;;;;;;2.73;2.17;;;;;;;;;;5016274;28;20402;-54
2022/01/01 12:13:56;;;;;;;8.00;2.10;;;;;;;;;;5015638;28;20410;-54
2022/01/01 12:16:22;;;;;;;3.83;2.13;;;;;;;;;;5015801;28;20410;-54
2022/01/01 12:18:48;;;;;;;5.90;2.23;;;;;;;;;;5015692;28;20921;-55
2022/01/01 12:21:21;;;;;;;7.63;2.10;;;;;;;;;;5016017;28;20405;-55
2022/01/01 12:23:48;;;;;;;4.40;2.50;;;;;;;;;;5013342;28;20409;-55
2022/01/01 12:26:14;;;;;;;4.60;3.50;;;;;;;;;;5009957;28;20424;-54
2022/01/01 12:28:42;;;;;;;3.60;2.60;;;;;;;;;;5012623;28;20420;-54
2022/01/01 12:31:12;;;;;;;2.33;2.07;;;;;;;;;;5012524;28;20384;-54
2022/01/01 12:33:39;;;;;;;3.40;2.40;;;;;;;;;;5015531;28;20474;-55
2022/01/01 12:36:15;;;;;;;2.00;1.80;;;;;;;;;;5015147;28;20491;-54
2022/01/01 12:38:47;;;;;;;3.00;2.30;;;;;;;;;;5015301;28;20971;-55
2022/01/01 12:41:14;;;;;;;3.67;2.40;;;;;;;;;;5013205;28;20921;-54
2022/01/01 12:43:49;;;;;;;6.33;2.77;;;;;;;;;;5015699;28;20741;-54
2022/01/01 12:46:17;;;;;;;12.53;3.20;;;;;;;;;;5015237;28;20403;-55
2022/01/01 12:48:43;;;;;;;5.77;2.27;;;;;;;;;;4995669;28;20814;-54
2022/01/01 12:51:10;;;;;;;3.17;2.30;;;;;;;;;;5015296;28;20412;-54
2022/01/01 12:53:37;;;;;;;4.67;2.40;;;;;;;;;;5015063;28;20413;-55
2022/01/01 12:56:07;;;;;;;4.60;2.50;;;;;;;;;;5015240;28;20450;-54
2022/01/01 12:58:41;;;;;;;5.23;2.20;;;;;;;;;;5014559;28;20480;-54
2022/01/01 13:01:17;;;;;;;4.80;2.30;;;;;;;;;;5013427;28;20399;-54
2022/01/01 13:03:44;;;;;;;5.70;2.30;;;;;;;;;;5013971;28;20482;-55
2022/01/01 13:06:11;;;;;;;6.33;2.87;;;;;;;;;;5015240;28;20403;-54
2022/01/01 13:08:41;;;;;;;6.87;3.00;;;;;;;;;;5012928;28;20460;-54
2022/01/01 13:11:08;;;;;;;7.13;2.37;;;;;;;;;;5014041;28;20382;-54
2022/01/01 13:13:34;;;;;;;7.07;2.47;;;;;;;;;;5014046;28;20764;-54
2022/01/01 13:16:00;;;;;;;5.00;2.53;;;;;;;;;;5014596;28;20455;-55
2022/01/01 13:18:29;;;;;;;3.73;2.37;;;;;;;;;;5014403;28;20923;-55
2022/01/01 13:20:55;;;;;;;3.80;2.70;;;;;;;;;;5014578;28;20405;-55
2022/01/01 13:23:26;;;;;;;5.27;2.30;;;;;;;;;;5015291;28;20402;-54
2022/01/01 13:25:52;;;;;;;5.93;2.13;;;;;;;;;;5015193;28;20407;-54
2022/01/01 13:28:18;;;;;;;2.87;2.13;;;;;;;;;;5014226;28;20458;-55
2022/01/01 13:30:45;;;;;;;5.33;2.00;;;;;;;;;;5014032;28;20923;-54
2022/01/01 13:33:14;;;;;;;2.90;2.40;;;;;;;;;;5014717;28;20411;-54
2022/01/01 13:35:46;;;;;;;4.53;2.57;;;;;;;;;;5014744;28;20502;-54
2022/01/01 13:38:14;;;;;;;4.60;2.50;;;;;;;;;;5014913;28;20428;-55
2022/01/01 13:40:43;;;;;;;4.13;2.37;;;;;;;;;;5014491;28;20873;-54
2022/01/01 13:43:10;;;;;;;8.63;2.60;;;;;;;;;;5014614;28;20779;-54
2022/01/01 13:45:36;;;;;;;6.30;2.10;;;;;;;;;;5014379;28;20450;-55
2022/01/01 13:48:06;;;;;;;4.33;2.57;;;;;;;;;;5014526;28;20922;-55
2022/01/01 13:50:38;;;;;;;4.07;2.27;;;;;;;;;;5014399;28;20517;-55
2022/01/01 13:53:06;;;;;;;4.70;2.70;;;;;;;;;;5013987;28;20413;-54
2022/01/01 13:55:33;;;;;;;3.10;2.10;;;;;;;;;;5014462;28;20759;-54
2022/01/01 13:58:02;;;;;;;3.50;1.87;;;;;;;;;;5013909;28;20431;-55
2022/01/01 14:00:29;;;;;;;4.20;2.40;;;;;;;;;;5013871;28;20971;-54
2022/01/01 14:02:55;;;;;;;7.27;2.70;;;;;;;;;;5014085;28;20408;-54
2022/01/01 14:05:22;;;;;;;5.07;2.60;;;;;;;;;;5014056;28;20389;-54
2022/01/01 14:07:49;;;;;;;10.90;2.87;;;;;;;;;;5013736;28;20453;-54
2022/01/01 14:10:16;;;;;;;7.20;2.50;;;;;;;;;;5014161;28;20464;-54
2022/01/01 14:12:44;;;;;;;3.57;2.53;;;;;;;;;;5014361;28;20396;-54
2022/01/01 14:15:14;;;;;;;5.30;2.60;;;;;;;;;;5014066;28;20402;-54
2022/01/01 14:18:04;;;;;;;2.70;2.50;;;;;;;;;;5013209;28;20428;-54
2022/01/01 14:20:37;;;;;;;2.80;2.20;;;;;;;;;;5013248;28;20493;-54
2022/01/01 14:23:06;;;;;;;7.60;2.37;;;;;;;;;;5013761;28;20395;-54
2022/01/01 14:25:33;;;;;;;4.17;2.33;;;;;;;;;;5013733;28;20771;-54
2022/01/01 14:28:00;;;;;;;7.07;3.00;;;;;;;;;;5013065;28;20426;-53
2022/01/01 14:30:27;;;;;;;5.77;3.00;;;;;;;;;;5014490;28;20445;-54
2022/01/01 14:32:53;;;;;;;3.90;2.40;;;;;;;;;;5013585;28;20411;-55
2022/01/01 14:35:20;;;;;;;2.63;2.33;;;;;;;;;;5013777;28;20414;-54
2022/01/01 14:37:46;;;;;;;4.67;3.00;;;;;;;;;;5013863;28;20405;-54
2022/01/01 14:40:12;;;;;;;6.87;3.10;;;;;;;;;;5013387;28;20492;-55